Data for 09/26/2018

Time Sea-Level Adjusted Pressure Absolute Pressure Temperature Relative Humidity Dew Point   
(mb) (inHg) (mb) (inHg) (C) (F) (%) (C) (F)
00:05 1025 30.27 854 25.22 5.4 41.7 56 -2.6 27.3
00:10 1025 30.27 854 25.22 5.3 41.5 57 -2.6 27.4
00:15 1025 30.27 854 25.22 5.1 41.2 58 -2.5 27.6
00:20 1025 30.27 854 25.22 4.7 40.4 60 -2.4 27.7
00:25 1025 30.27 854 25.22 4.2 39.6 62 -2.5 27.6
00:30 1025 30.27 854 25.22 4.1 39.3 63 -2.3 27.9
00:35 1025 30.27 854 25.22 3.9 39.1 64 -2.3 27.8
00:40 1025 30.27 854 25.22 3.8 38.8 64 -2.3 27.8
00:45 1025 30.27 854 25.22 3.5 38.3 66 -2.2 28
00:50 1025 30.27 854 25.22 3.4 38.1 66 -2.3 27.8
00:55 1025 30.27 854 25.22 3.1 37.6 69 -2.1 28.3
01:00 1025 30.27 854 25.22 2.7 36.8 69 -2.4 27.7
01:05 1025 30.27 854 25.22 2.9 37.2 67 -2.6 27.3
01:10 1025 30.27 854 25.22 2.9 37.2 67 -2.6 27.4
01:15 1025 30.27 854 25.22 2.9 37.2 67 -2.6 27.3
01:20 1025 30.27 854 25.22 3 37.3 65 -3 26.6
01:25 1025 30.27 854 25.22 3.4 38.2 63 -3.1 26.5
01:30 1025 30.27 854 25.22 3.5 38.2 64 -2.8 27
01:35 1025 30.27 854 25.22 3.3 37.9 64 -2.9 26.8
01:40 1025 30.27 854 25.22 3.4 38.1 63 -2.9 26.7
01:45 1025 30.27 854 25.22 3.2 37.7 64 -2.9 26.8
01:50 1025 30.27 854 25.22 3.3 37.9 63 -3.1 26.4
01:55 1025 30.27 854 25.22 3.5 38.2 62 -3.2 26.3
02:00 1025 30.27 854 25.22 3.5 38.3 62 -3 26.5
02:05 1025 30.27 854 25.22 3.5 38.2 62 -3.1 26.5
02:10 1025 30.27 854 25.22 3.4 38 62 -3.3 26.1
02:15 1025 30.27 854 25.22 3.7 38.7 58 -3.7 25.3
02:20 1025 30.27 854 25.22 3.8 38.9 62 -2.8 26.9
02:25 1025 30.27 854 25.22 3.2 37.8 63 -3.2 26.2
02:30 1025 30.27 854 25.22 3.3 38 62 -3.3 26
02:35 1025 30.27 854 25.22 3.6 38.4 59 -3.7 25.4
02:40 1025 30.27 854 25.22 4.1 39.4 58 -3.4 25.9
02:45 1025 30.27 854 25.22 4 39.1 59 -3.2 26.2
02:50 1025 30.27 854 25.22 3.9 38.9 60 -3.2 26.2
02:55 1025 30.27 854 25.22 3.7 38.7 61 -3 26.5
03:00 1025 30.27 854 25.22 3.5 38.2 63 -3 26.6
03:05 1025 30.27 854 25.22 3.4 38.2 63 -3 26.7
03:10 1025 30.27 854 25.22 3.5 38.2 64 -2.7 27.2
03:15 1025 30.27 854 25.22 2.8 37 67 -2.6 27.3
03:20 1025 30.27 854 25.22 2.6 36.6 67 -2.9 26.8
03:25 1025 30.27 854 25.22 2.6 36.8 67 -2.9 26.8
03:30 1025 30.27 854 25.22 2.9 37.3 65 -3 26.6
03:35 1025 30.27 854 25.22 3.2 37.8 64 -3 26.7
03:40 1025 30.27 854 25.22 3.4 38.1 64 -2.8 26.9
03:45 1025 30.27 854 25.22 3.3 37.9 65 -2.7 27.1
03:50 1025 30.27 854 25.22 3.2 37.7 65 -2.7 27.1
03:55 1025 30.27 854 25.22 3.2 37.8 64 -2.9 26.7
04:00 1025 30.27 854 25.22 3.6 38.5 63 -2.8 26.9
04:05 1025 30.27 854 25.22 3.7 38.6 62 -2.9 26.8
04:10 1025 30.27 854 25.22 3.8 38.8 62 -2.8 27
04:15 1025 30.27 854 25.22 3.5 38.4 64 -2.7 27.2
04:20 1025 30.27 854 25.22 3.6 38.4 63 -2.8 27
04:25 1025 30.27 854 25.22 3.3 38 66 -2.4 27.6
04:30 1025 30.27 854 25.22 3.3 37.9 64 -2.9 26.8
04:35 1025 30.27 854 25.22 3.5 38.2 64 -2.8 27
04:40 1025 30.27 854 25.22 3.5 38.3 64 -2.7 27.1
04:45 1025 30.27 854 25.22 3.4 38.2 65 -2.6 27.3
04:50 1025 30.27 854 25.22 3.2 37.7 66 -2.5 27.4
04:55 1025 30.27 854 25.22 3 37.4 66 -2.7 27.2
05:00 1025 30.27 854 25.22 3.1 37.5 65 -2.8 27
05:05 1025 30.27 854 25.22 3.2 37.7 65 -2.7 27.1
05:10 1025 30.27 854 25.22 3.5 38.3 62 -3 26.6
05:15 1025 30.27 854 25.22 4.1 39.4 61 -2.8 27
05:20 1025 30.27 854 25.22 4.1 39.3 62 -2.6 27.2
05:25 1025 30.27 854 25.22 3.9 39 62 -2.7 27.1
05:30 1025 30.27 854 25.22 3.8 38.9 63 -2.6 27.3
05:35 1025 30.27 854 25.22 3.6 38.5 64 -2.7 27.2
05:40 1025 30.27 854 25.22 3.7 38.7 62 -3 26.6
05:45 1025 30.27 854 25.22 3.8 38.9 63 -2.7 27.2
05:50 1025 30.27 854 25.22 3.9 39 63 -2.6 27.4
05:55 1025 30.27 854 25.22 3.4 38.2 65 -2.4 27.6
06:00 1025 30.27 854 25.22 3.2 37.8 65 -2.6 27.3
06:05 1025 30.27 854 25.22 3.1 37.6 66 -2.7 27.2
06:10 1025 30.27 854 25.22 3.1 37.6 66 -2.7 27.2
06:15 1025 30.27 854 25.22 3.4 38.1 64 -2.9 26.9
06:20 1025 30.27 854 25.22 3.8 38.9 63 -2.6 27.2
06:25 1025 30.27 854 25.22 3.5 38.3 65 -2.6 27.4
06:30 1025 30.27 854 25.22 3.3 38 64 -2.7 27.1
06:35 1025 30.27 854 25.22 3.8 38.8 61 -3.1 26.4
06:40 1025 30.27 854 25.22 4.2 39.5 61 -2.6 27.4
06:45 1025 30.27 854 25.22 3.9 38.9 63 -2.5 27.4
06:50 1025 30.27 854 25.22 3.7 38.6 64 -2.6 27.3
06:55 1025 30.27 854 25.22 3.5 38.3 65 -2.4 27.6
07:00 1025 30.27 854 25.22 3.3 37.9 66 -2.5 27.6
07:05 1025 30.27 854 25.22 3.3 37.9 66 -2.4 27.6
07:10 1025 30.27 854 25.22 3.1 37.5 68 -2.3 27.8
07:15 1025 30.27 854 25.22 2.9 37.2 68 -2.5 27.6
07:20 1025 30.27 854 25.22 3.1 37.5 67 -2.4 27.7
07:25 1025 30.27 854 25.22 3.1 37.5 68 -2.3 27.8
07:30 1025 30.27 854 25.22 3.2 37.7 67 -2.4 27.8
07:35 1025 30.27 854 25.22 3.3 38 66 -2.3 27.8
07:40 1025 30.27 854 25.22 3.5 38.2 66 -2.3 27.9
07:45 1025 30.27 854 25.22 3.5 38.3 65 -2.4 27.7
07:50 1025 30.27 854 25.22 3.5 38.4 67 -2.1 28.2
07:55 1025 30.27 854 25.22 3.4 38.1 68 -2 28.4
08:00 1025 30.27 854 25.22 3.2 37.8 69 -2 28.4
08:05 1025 30.27 854 25.22 3.1 37.6 69 -2 28.3
08:10 1025 30.27 854 25.22 3.2 37.7 67 -2.3 27.9
08:15 1025 30.27 854 25.22 3.4 38.1 67 -2.2 28
08:20 1025 30.27 854 25.22 3.6 38.5 66 -2.1 28.2
08:25 1025 30.27 854 25.22 3.7 38.7 66 -2 28.3
08:30 1025 30.27 854 25.22 4.1 39.3 64 -2.2 28.1
08:35 1025 30.27 854 25.22 4.3 39.7 62 -2.2 28
08:40 1025 30.27 854 25.22 4.6 40.2 63 -2 28.5
08:45 1025 30.27 854 25.22 4.5 40.2 62 -2.2 28.1
08:50 1025 30.27 855 25.25 4.8 40.6 61 -2.1 28.3
08:55 1025 30.27 855 25.25 5.3 41.6 59 -2 28.4
09:00 1025 30.27 854 25.22 5.6 42.2 60 -1.5 29.2
09:05 1025 30.27 855 25.25 6.2 43.2 56 -1.9 28.6
09:10 1025 30.27 855 25.25 7.3 45.1 54 -1.4 29.5
09:15 1025 30.27 855 25.25 7.8 46 52 -1.4 29.5
09:20 1025 30.27 855 25.25 8.4 47.2 49 -1.7 29
09:25 1025 30.27 855 25.25 9.1 48.3 49 -0.9 30.3
09:30 1025 30.27 855 25.25 9.4 48.8 47 -1.2 29.8
09:35 1025 30.27 855 25.25 9.1 48.4 49 -1 30.3
09:40 1026 30.3 855 25.25 8.8 47.9 48 -1.4 29.4
09:45 1025 30.27 855 25.25 8.9 48.1 46 -2 28.4
09:50 1025 30.27 855 25.25 9.3 48.8 44 -2.3 27.8
09:55 1025 30.27 855 25.25 9.7 49.4 43 -2.3 27.9
10:00 1025 30.27 855 25.25 10.1 50.1 42 -2.3 27.9
10:05 1025 30.27 855 25.25 10.1 50.1 39 -3.2 26.3
10:10 1025 30.27 855 25.25 10.1 50.2 40 -2.9 26.9
10:15 1025 30.27 855 25.25 10.6 51.1 38 -3 26.6
10:20 1025 30.27 855 25.25 11.3 52.3 37 -3 26.7
10:25 1025 30.27 855 25.25 11.5 52.7 33 -4.2 24.4
10:30 1025 30.27 855 25.25 11.4 52.5 33 -4.4 24.1
10:35 1025 30.27 854 25.22 11.3 52.3 33 -4.5 23.8
10:40 1025 30.27 854 25.22 11.5 52.8 32 -4.4 24.1
10:45 1025 30.27 854 25.22 11.9 53.4 33 -3.6 25.5
10:50 1025 30.27 854 25.22 11.5 52.6 33 -4.2 24.4
10:55 1025 30.27 854 25.22 11.3 52.3 34 -4 24.7
11:00 1025 30.27 854 25.22 11.8 53.2 32 -4.3 24.2
11:05 1025 30.27 854 25.22 12.1 53.7 32 -4 24.8
11:10 1025 30.27 855 25.25 11.9 53.4 31 -4.6 23.7
11:15 1025 30.27 854 25.22 12.1 53.8 30 -4.8 23.4
11:20 1025 30.27 854 25.22 12.5 54.5 30 -4.5 23.9
11:25 1025 30.27 854 25.22 12.6 54.6 30 -4.3 24.3
11:30 1025 30.27 854 25.22 12.5 54.5 31 -4.2 24.5
11:35 1025 30.27 854 25.22 12.5 54.5 30 -4.4 24.1
11:40 1025 30.27 854 25.22 12.7 54.8 30 -4.4 24.2
11:45 1025 30.27 854 25.22 13.3 55.9 30 -3.8 25.2
11:50 1025 30.27 854 25.22 13.2 55.8 30 -4 24.8
11:55 1025 30.27 854 25.22 13.2 55.8 30 -3.7 25.3
12:00 1025 30.27 854 25.22 13.4 56.1 29 -4.1 24.6
12:05 1025 30.27 854 25.22 13.8 56.8 29 -3.9 25.1
12:10 1025 30.27 854 25.22 13.8 56.8 28 -4.1 24.6
12:15 1025 30.27 854 25.22 13.9 57 29 -3.7 25.4
12:20 1025 30.27 854 25.22 13.8 56.8 28 -4.2 24.4
12:25 1025 30.27 854 25.22 14.2 57.5 27 -4.3 24.3
12:30 1025 30.27 854 25.22 13.5 56.3 28 -4.4 24.1
12:35 1024 30.24 854 25.22 13.2 55.7 28 -5.1 22.8
12:40 1024 30.24 853 25.19 14 57.2 27 -4.5 23.9
12:45 1024 30.24 853 25.19 14.7 58.4 26 -4.6 23.7
12:50 1024 30.24 853 25.19 15.4 59.7 25 -4.6 23.7
12:55 1024 30.24 853 25.19 15.5 59.8 25 -4.3 24.2
13:00 1024 30.24 853 25.19 14.7 58.5 26 -4.6 23.7
13:05 1024 30.24 853 25.19 15.3 59.5 26 -3.9 24.9
13:10 1024 30.24 853 25.19 14.5 58.1 27 -4.2 24.4
13:15 1024 30.24 853 25.19 14.8 58.7 26 -4.3 24.3
13:20 1024 30.24 853 25.19 15.5 60 24 -5.1 22.8
13:25 1024 30.24 853 25.19 15.4 59.8 25 -4.5 23.9
13:30 1023 30.21 853 25.19 15 59.1 24 -5.6 22
13:35 1023 30.21 853 25.19 15.6 60 25 -4.1 24.6
13:40 1023 30.21 852 25.16 15.6 60.1 25 -4.5 23.9
13:45 1023 30.21 852 25.16 15.6 60.1 24 -5 23
13:50 1023 30.21 852 25.16 15.8 60.4 24 -4.5 23.9
13:55 1023 30.21 852 25.16 16.4 61.4 23 -4.9 23.2
14:00 1023 30.21 852 25.16 16.3 61.3 22 -5.2 22.7
14:05 1023 30.21 852 25.16 16.6 61.9 24 -4.1 24.6
14:10 1023 30.21 852 25.16 16.9 62.3 24 -3.9 25
14:15 1023 30.21 852 25.16 16.4 61.6 22 -5.3 22.5
14:20 1023 30.21 852 25.16 17 62.6 22 -4.6 23.8
14:25 1023 30.21 852 25.16 17.2 62.9 22 -4.4 24
14:30 1022 30.18 852 25.16 17.1 62.9 22 -4.4 24
14:35 1022 30.18 852 25.16 17.3 63.1 22 -4.7 23.6
14:40 1022 30.18 852 25.16 17.4 63.3 22 -4.5 23.9
14:45 1022 30.18 851 25.13 17.5 63.5 22 -4.4 24
14:50 1022 30.18 851 25.13 17.9 64.2 22 -4 24.9
14:55 1022 30.18 851 25.13 17.9 64.2 22 -4.1 24.6
15:00 1022 30.18 851 25.13 17.5 63.5 23 -3.6 25.6
15:05 1022 30.18 851 25.13 17.1 62.9 22 -4.6 23.8
15:10 1022 30.18 851 25.13 17.2 63 24 -3.7 25.4
15:15 1022 30.18 851 25.13 17.6 63.7 23 -3.9 24.9
15:20 1022 30.18 851 25.13 17.9 64.2 23 -3.4 25.9
15:25 1022 30.18 851 25.13 17.9 64.3 23 -3.6 25.5
15:30 1022 30.18 851 25.13 17.8 64.1 23 -3.6 25.4
15:35 1022 30.18 851 25.13 18 64.3 23 -3.6 25.6
15:40 1022 30.18 851 25.13 17.7 63.9 23 -3.8 25.1
15:45 1022 30.18 851 25.13 17.7 63.8 23 -3.4 25.9
15:50 1022 30.18 851 25.13 18 64.3 22 -3.9 25
15:55 1022 30.18 851 25.13 18.1 64.6 21 -4.2 24.4
16:00 1022 30.18 851 25.13 17.5 63.4 22 -4.4 24.1
16:05 1022 30.18 851 25.13 17.5 63.5 23 -3.8 25.1
16:10 1022 30.18 851 25.13 17.7 63.8 22 -4.1 24.6
16:15 1022 30.18 851 25.13 17.6 63.8 23 -3.5 25.7
16:20 1022 30.18 851 25.13 17.5 63.4 23 -4 24.9
16:25 1022 30.18 851 25.13 17.9 64.2 22 -3.8 25.1
16:30 1022 30.18 851 25.13 17.9 64.1 22 -4 24.8
16:35 1022 30.18 851 25.13 17.9 64.2 22 -4.2 24.4
16:40 1022 30.18 851 25.13 18 64.4 23 -3.6 25.5
16:45 1022 30.18 851 25.13 17.4 63.3 23 -3.9 25
16:50 1022 30.18 851 25.13 17.3 63.1 25 -3.1 26.5
16:55 1022 30.18 851 25.13 17.6 63.6 24 -3.1 26.4
17:00 1022 30.18 851 25.13 17.4 63.3 23 -3.6 25.4
17:05 1022 30.18 851 25.13 16.7 62 25 -3.5 25.7
17:10 1022 30.18 851 25.13 16.9 62.4 24 -3.5 25.7
17:15 1022 30.18 851 25.13 17.2 62.9 25 -2.9 26.8
17:20 1022 30.18 851 25.13 16.7 62.1 26 -3 26.6
17:25 1022 30.18 851 25.13 16.7 62.1 26 -2.5 27.4
17:30 1022 30.18 851 25.13 16.3 61.4 27 -2.5 27.6
17:35 1022 30.18 851 25.13 16.3 61.3 27 -2.4 27.6
17:40 1022 30.18 851 25.13 16.3 61.3 27 -2.5 27.5
17:45 1022 30.18 851 25.13 16.1 61 28 -2.3 27.9
17:50 1022 30.18 851 25.13 16.1 61 28 -2.5 27.5
17:55 1021 30.15 851 25.13 16.2 61.1 28 -2.1 28.1
18:00 1021 30.15 851 25.13 16.3 61.4 27 -2.4 27.6
18:05 1021 30.15 851 25.13 16.4 61.5 27 -2.6 27.3
18:10 1021 30.15 850 25.1 16.2 61.2 27 -2.6 27.4
18:15 1021 30.15 850 25.1 16 60.9 28 -2.4 27.6
18:20 1021 30.15 850 25.1 16.2 61.2 28 -2.3 27.9
18:25 1021 30.15 850 25.1 16.3 61.3 28 -2.1 28.3
18:30 1021 30.15 850 25.1 16.2 61.1 28 -2 28.4
18:35 1021 30.15 850 25.1 15.9 60.5 30 -1.4 29.5
18:40 1021 30.15 850 25.1 15.7 60.2 31 -1.2 29.8
18:45 1021 30.15 850 25.1 15.5 60 32 -1 30.2
18:50 1021 30.15 850 25.1 15.4 59.6 32 -1 30.3
18:55 1021 30.15 850 25.1 15.3 59.6 32 -1.3 29.7
19:00 1021 30.15 850 25.1 15.1 59.2 33 -1 30.2
19:05 1021 30.15 850 25.1 15 59 33 -1.1 30
19:10 1021 30.15 850 25.1 14.9 58.7 33 -1.3 29.7
19:15 1021 30.15 850 25.1 14.7 58.4 33 -1.4 29.5
19:20 1021 30.15 850 25.1 14.5 58.1 33 -1.7 29
19:25 1021 30.15 850 25.1 14.4 57.9 33 -1.7 29
19:30 1021 30.15 850 25.1 14.2 57.6 33 -1.7 28.9
19:35 1021 30.15 850 25.1 14 57.2 35 -1.3 29.6
19:40 1021 30.15 850 25.1 13.8 56.8 35 -1.2 29.9
19:45 1021 30.15 850 25.1 13.8 56.8 32 -2.4 27.7
19:50 1021 30.15 850 25.1 13.9 57.1 32 -2.5 27.4
19:55 1021 30.15 850 25.1 13.9 57 31 -2.8 27
20:00 1021 30.15 850 25.1 13.9 57.1 31 -2.8 26.9
20:05 1021 30.15 850 25.1 14 57.1 30 -3 26.5
20:10 1021 30.15 850 25.1 14.1 57.3 31 -2.8 27
20:15 1021 30.15 850 25.1 14.2 57.5 31 -2.7 27.2
20:20 1021 30.15 850 25.1 14.2 57.6 30 -2.9 26.8
20:25 1021 30.15 850 25.1 14.4 57.8 29 -3.3 26.1
20:30 1021 30.15 850 25.1 14.5 58.1 29 -3.3 26
20:35 1021 30.15 850 25.1 14.6 58.3 29 -3.2 26.3
20:40 1021 30.15 851 25.13 14.6 58.2 30 -2.8 27
20:45 1021 30.15 851 25.13 14.3 57.8 31 -2.5 27.5
20:50 1021 30.15 851 25.13 14.1 57.4 32 -2.2 28
20:55 1022 30.18 851 25.13 14 57.1 32 -2.4 27.8
21:00 1022 30.18 851 25.13 13.9 57 32 -2.4 27.7
21:05 1022 30.18 851 25.13 13.9 56.9 33 -2.3 27.9
21:10 1022 30.18 851 25.13 13.8 56.9 33 -2.3 27.9
21:15 1022 30.18 851 25.13 13.7 56.6 32 -2.5 27.5
21:20 1022 30.18 851 25.13 13.6 56.6 33 -2.2 28.1
21:25 1022 30.18 851 25.13 13.6 56.4 33 -2.5 27.5
21:30 1022 30.18 851 25.13 13.7 56.6 32 -2.7 27.2
21:35 1022 30.18 851 25.13 13.7 56.6 32 -2.6 27.3
21:40 1022 30.18 851 25.13 13.6 56.5 32 -2.7 27.1
21:45 1022 30.18 851 25.13 13.7 56.6 32 -2.6 27.2
21:50 1022 30.18 851 25.13 13.6 56.6 32 -2.5 27.5
21:55 1022 30.18 851 25.13 13.5 56.3 33 -2.2 28
22:00 1022 30.18 851 25.13 13.2 55.8 33 -2.5 27.5
22:05 1022 30.18 851 25.13 13.1 55.7 33 -2.9 26.8
22:10 1022 30.18 851 25.13 13.2 55.8 33 -2.8 27
22:15 1022 30.18 851 25.13 13.3 55.9 33 -2.8 27
22:20 1022 30.18 851 25.13 13.2 55.7 32 -3 26.6
22:25 1022 30.18 851 25.13 13.2 55.7 33 -2.8 27
22:30 1022 30.18 851 25.13 13 55.4 33 -2.8 27
22:35 1022 30.18 851 25.13 13 55.4 31 -3.5 25.8
22:40 1022 30.18 851 25.13 13.3 55.9 31 -3.4 25.8
22:45 1022 30.18 851 25.13 13.3 56 31 -3.2 26.2
22:50 1022 30.18 851 25.13 13.3 55.9 31 -3.6 25.6
22:55 1022 30.18 851 25.13 13.4 56.1 29 -4 24.8
23:00 1022 30.18 851 25.13 13.6 56.4 29 -4 24.8
23:05 1022 30.18 851 25.13 13.6 56.5 30 -3.5 25.7
23:10 1022 30.18 851 25.13 13.5 56.3 31 -3.4 25.8
23:15 1022 30.18 851 25.13 13.4 56.1 31 -3.4 25.9
23:20 1022 30.18 851 25.13 13.2 55.8 31 -3.3 26
23:25 1022 30.18 851 25.13 12.9 55.3 34 -2.4 27.7
23:30 1022 30.18 851 25.13 12.5 54.5 36 -2 28.5
23:35 1022 30.18 851 25.13 12.2 53.9 38 -1.8 28.7
23:40 1022 30.18 851 25.13 12 53.7 38 -1.8 28.8
23:45 1022 30.18 851 25.13 12 53.5 39 -1.5 29.3
23:50 1022 30.18 851 25.13 11.8 53.3 39 -1.7 28.9
23:55 1022 30.18 851 25.13 11.9 53.4 37 -2.2 28
24:00 1022 30.18 851 25.13 12.1 53.7 37 -2.2 28.1